Time;durP1;ratioP1;P1;durP2;ratioP2;P2;SDS_P1;SDS_P2;PMS_P1;PMS_P2;Temp;Humidity;BMP_temperature;BMP_pressure;BME280_temperature;BME280_humidity;BME280_pressure;Samples;Min_cycle;Max_cycle;Signal;HPM_P1;HPM_P2
2023/01/04 00:01:15;;;;;;;7.73;6.13;;;9.20;62.20;;;;;;5015506;28;20469;-58
2023/01/04 00:03:41;;;;;;;7.73;6.93;;;9.30;62.10;;;;;;5018638;28;20520;-58
2023/01/04 00:06:09;;;;;;;7.83;6.13;;;9.50;60.70;;;;;;5020668;28;20979;-58
2023/01/04 00:08:35;;;;;;;9.00;6.07;;;9.50;60.00;;;;;;5019847;28;20648;-58
2023/01/04 00:11:05;;;;;;;7.50;5.57;;;9.50;59.50;;;;;;5018891;28;20973;-58
2023/01/04 00:13:32;;;;;;;8.30;6.23;;;9.20;60.20;;;;;;5026510;28;20187;-58
2023/01/04 00:15:58;;;;;;;7.63;6.07;;;9.00;60.70;;;;;;5016346;28;20495;-58
2023/01/04 00:18:24;;;;;;;7.90;5.87;;;8.70;61.70;;;;;;5022009;28;20943;-58
2023/01/04 00:20:49;;;;;;;10.03;6.40;;;8.80;61.20;;;;;;5018586;28;20531;-58
2023/01/04 00:23:15;;;;;;;8.80;7.77;;;8.30;61.00;;;;;;5023866;28;20237;-58
2023/01/04 00:25:40;;;;;;;8.33;6.40;;;8.10;62.50;;;;;;5030010;28;20232;-58
2023/01/04 00:28:06;;;;;;;8.33;7.37;;;8.00;62.10;;;;;;5014281;28;20201;-58
2023/01/04 00:30:32;;;;;;;9.60;7.90;;;8.20;62.20;;;;;;5025272;28;20196;-58
2023/01/04 00:32:58;;;;;;;7.87;6.07;;;8.50;61.40;;;;;;5017401;28;20253;-59
2023/01/04 00:35:24;;;;;;;6.03;5.40;;;8.30;60.80;;;;;;5017295;28;20713;-58
2023/01/04 00:37:49;;;;;;;9.10;6.80;;;8.10;62.20;;;;;;5015321;28;20190;-58
2023/01/04 00:40:15;;;;;;;7.90;6.93;;;8.20;63.00;;;;;;5013256;28;20452;-58
2023/01/04 00:42:40;;;;;;;8.53;6.07;;;8.30;62.50;;;;;;5012771;28;20308;-58
2023/01/04 00:45:06;;;;;;;7.40;6.60;;;8.40;61.60;;;;;;5014261;28;20190;-58
2023/01/04 00:47:32;;;;;;;6.00;5.40;;;8.30;62.20;;;;;;5018099;28;20323;-58
2023/01/04 00:49:58;;;;;;;7.40;5.63;;;8.40;62.30;;;;;;5016147;28;20718;-58
2023/01/04 00:52:23;;;;;;;11.10;7.33;;;8.50;61.30;;;;;;5022385;28;20204;-58
2023/01/04 00:54:49;;;;;;;7.13;5.90;;;8.50;61.20;;;;;;5018754;28;20224;-58
2023/01/04 00:57:15;;;;;;;8.87;6.70;;;8.50;61.40;;;;;;5015653;28;21104;-58
2023/01/04 00:59:40;;;;;;;10.03;5.93;;;8.20;61.30;;;;;;5016242;28;20221;-58
2023/01/04 01:02:06;;;;;;;6.73;6.07;;;8.10;62.10;;;;;;5021236;28;20207;-58
2023/01/04 01:04:31;;;;;;;9.40;6.57;;;8.20;62.20;;;;;;5017912;28;20706;-58
2023/01/04 01:06:57;;;;;;;8.30;6.43;;;8.10;62.50;;;;;;5012943;28;20259;-58
2023/01/04 01:09:22;;;;;;;8.23;6.40;;;8.40;62.90;;;;;;5020170;28;20422;-58
2023/01/04 01:11:49;;;;;;;7.67;5.87;;;8.50;61.30;;;;;;5018246;28;20198;-58
2023/01/04 01:14:17;;;;;;;7.93;6.13;;;8.60;60.90;;;;;;5021049;28;20598;-58
2023/01/04 01:16:43;;;;;;;6.90;6.10;;;8.80;60.50;;;;;;5024220;28;20958;-58
2023/01/04 01:19:09;;;;;;;7.57;6.17;;;8.90;59.90;;;;;;5017452;28;20441;-58
2023/01/04 01:21:36;;;;;;;7.47;6.13;;;8.80;59.80;;;;;;5035239;28;20527;-59
2023/01/04 01:24:02;;;;;;;6.37;5.57;;;8.70;60.10;;;;;;5020608;28;20255;-58
2023/01/04 01:26:28;;;;;;;7.83;6.03;;;8.70;60.10;;;;;;5020706;28;20485;-58
2023/01/04 01:28:54;;;;;;;8.60;5.63;;;8.80;60.00;;;;;;5019151;28;20248;-58
2023/01/04 01:31:26;;;;;;;8.70;6.07;;;8.40;60.80;;;;;;5015808;28;20449;-58
2023/01/04 01:33:53;;;;;;;7.23;5.80;;;8.40;61.20;;;;;;5020832;28;20216;-58
2023/01/04 01:36:20;;;;;;;7.07;5.97;;;8.50;61.10;;;;;;5018404;28;20444;-58
2023/01/04 01:38:46;;;;;;;7.40;5.93;;;8.30;61.60;;;;;;5022032;28;20462;-58
2023/01/04 01:41:24;;;;;;;8.20;5.77;;;8.30;61.40;;;;;;5018970;28;20440;-58
2023/01/04 01:43:58;;;;;;;7.43;5.73;;;8.20;61.70;;;;;;5028664;28;20221;-58
2023/01/04 01:46:49;;;;;;;8.07;5.97;;;8.00;63.20;;;;;;5029748;28;20468;-58
2023/01/04 01:49:38;;;;;;;5.70;5.20;;;7.90;63.00;;;;;;5028478;28;20461;-58
2023/01/04 01:52:10;;;;;;;7.50;5.03;;;7.60;65.00;;;;;;5014601;28;20448;-58
2023/01/04 01:54:43;;;;;;;5.53;4.43;;;7.70;65.70;;;;;;5023723;28;20956;-58
2023/01/04 01:57:12;;;;;;;7.07;5.77;;;7.70;65.30;;;;;;5014747;28;20525;-58
2023/01/04 01:59:40;;;;;;;6.57;5.00;;;8.00;64.90;;;;;;5012974;28;20446;-58
2023/01/04 02:02:06;;;;;;;5.20;4.70;;;8.10;64.00;;;;;;5025241;28;20432;-58
2023/01/04 02:04:32;;;;;;;5.73;5.17;;;8.20;63.30;;;;;;5010841;28;20443;-58
2023/01/04 02:06:58;;;;;;;8.90;4.43;;;8.40;62.40;;;;;;5019689;28;20293;-58
2023/01/04 02:09:24;;;;;;;5.73;4.87;;;8.60;61.80;;;;;;5026801;28;20471;-58
2023/01/04 02:11:50;;;;;;;6.83;5.67;;;8.70;60.90;;;;;;5015306;28;20472;-58
2023/01/04 02:14:26;;;;;;;7.03;6.33;;;8.40;61.40;;;;;;5010248;28;20476;-58
2023/01/04 02:16:55;;;;;;;7.63;6.03;;;8.20;61.40;;;;;;5019658;28;20194;-58
2023/01/04 02:19:54;;;;;;;8.03;5.60;;;7.90;61.30;;;;;;5019623;28;20992;-58
2023/01/04 02:22:38;;;;;;;6.13;5.53;;;7.90;61.60;;;;;;5018672;28;20498;-58
2023/01/04 02:25:28;;;;;;;6.90;6.00;;;7.70;62.20;;;;;;5025578;28;20994;-58
2023/01/04 02:27:58;;;;;;;7.93;6.20;;;7.90;62.50;;;;;;5021224;28;20491;-58
2023/01/04 02:31:00;;;;;;;6.57;5.53;;;7.90;62.80;;;;;;5014501;28;20666;-59
2023/01/04 02:33:46;;;;;;;7.67;5.23;;;7.90;62.70;;;;;;5020071;28;20448;-58
2023/01/04 02:36:33;;;;;;;6.33;5.53;;;7.90;62.00;;;;;;5018710;28;20460;-58
2023/01/04 02:39:11;;;;;;;6.63;5.50;;;7.80;62.30;;;;;;5012097;28;20467;-58
2023/01/04 02:41:49;;;;;;;5.40;4.90;;;7.60;62.80;;;;;;5020203;28;20478;-58
2023/01/04 02:50:29;;;;;;;5.80;5.20;;;7.20;65.10;;;;;;5029853;28;20527;-58
2023/01/04 02:50:31;;;;;;;5.87;5.03;;;7.10;66.30;;;;;;5029041;28;20879;-58
2023/01/04 02:53:08;;;;;;;7.10;6.20;;;7.40;65.90;;;;;;5029393;28;20462;-58
2023/01/04 02:55:39;;;;;;;6.60;5.93;;;7.40;65.80;;;;;;5017656;28;20444;-58
2023/01/04 02:58:18;;;;;;;6.50;5.77;;;7.50;65.00;;;;;;5017265;28;20457;-58
2023/01/04 03:07:33;;;;;;;6.90;5.50;;;6.90;65.60;;;;;;5014571;28;20515;-58
2023/01/04 03:10:16;;;;;;;6.53;5.83;;;6.80;66.30;;;;;;5003465;28;20463;-58
2023/01/04 03:12:53;;;;;;;5.70;5.03;;;6.70;67.00;;;;;;5024440;28;20452;-59
2023/01/04 03:15:23;;;;;;;6.97;6.07;;;6.70;67.60;;;;;;5028620;28;20493;-59
2023/01/04 03:17:54;;;;;;;5.60;5.00;;;6.60;68.60;;;;;;5022094;28;20443;-58
2023/01/04 03:20:21;;;;;;;7.30;5.73;;;6.70;68.70;;;;;;5030734;28;21134;-58
2023/01/04 03:37:23;;;;;;;7.87;6.53;;;6.50;70.90;;;;;;5033350;28;20439;-58
2023/01/04 03:49:11;;;;;;;8.17;5.30;;;7.10;66.40;;;;;;5030730;28;20994;-57
2023/01/04 03:51:37;;;;;;;6.30;5.60;;;7.30;65.60;;;;;;5024300;28;20462;-58
2023/01/04 03:54:23;;;;;;;5.00;4.53;;;7.10;65.40;;;;;;5019657;28;20503;-58
2023/01/04 03:56:51;;;;;;;6.07;5.10;;;6.70;67.00;;;;;;5031759;28;20461;-58
2023/01/04 03:59:17;;;;;;;5.50;5.00;;;6.50;68.10;;;;;;5031160;28;20466;-57
2023/01/04 04:01:43;;;;;;;5.73;5.13;;;6.70;68.20;;;;;;5040281;28;20480;-57
2023/01/04 04:09:38;;;;;;;4.90;4.17;;;6.60;70.60;;;;;;5024295;28;20482;-58
2023/01/04 04:12:03;;;;;;;6.07;5.00;;;6.80;70.10;;;;;;5013997;28;20514;-58
2023/01/04 04:14:29;;;;;;;6.93;4.67;;;7.00;70.10;;;;;;5020323;28;20247;-58
2023/01/04 04:16:54;;;;;;;5.70;4.87;;;6.90;70.70;;;;;;5018902;28;20349;-58
2023/01/04 04:19:20;;;;;;;5.87;5.03;;;6.80;70.80;;;;;;5016329;28;20189;-58
2023/01/04 04:21:46;;;;;;;4.97;3.97;;;6.80;71.00;;;;;;5017451;28;20201;-58
2023/01/04 04:24:20;;;;;;;4.17;3.70;;;6.80;71.20;;;;;;5020575;28;20816;-58
2023/01/04 04:26:46;;;;;;;7.00;3.97;;;6.60;71.20;;;;;;5017347;28;20232;-58
2023/01/04 04:29:12;;;;;;;5.50;4.70;;;6.60;72.20;;;;;;5019348;28;20432;-58
2023/01/04 04:31:37;;;;;;;6.40;4.70;;;6.80;73.10;;;;;;5015097;28;20272;-58
2023/01/04 04:34:03;;;;;;;6.40;4.53;;;7.10;70.20;;;;;;5015953;28;20527;-58
2023/01/04 04:36:28;;;;;;;5.30;4.67;;;7.10;70.10;;;;;;5027783;28;20272;-58
2023/01/04 04:38:54;;;;;;;6.80;5.13;;;7.20;70.20;;;;;;5016002;28;21867;-58
2023/01/04 04:41:38;;;;;;;4.17;3.77;;;7.20;69.90;;;;;;5023748;28;20193;-58
2023/01/04 04:44:05;;;;;;;4.53;3.80;;;7.30;69.50;;;;;;5026531;28;20197;-58
2023/01/04 04:46:31;;;;;;;4.20;3.77;;;7.30;69.90;;;;;;5023147;28;20492;-59
2023/01/04 04:48:57;;;;;;;5.47;3.83;;;7.60;69.70;;;;;;5020642;28;20467;-58
2023/01/04 04:51:22;;;;;;;6.23;4.47;;;7.80;68.60;;;;;;5022355;28;20197;-58
2023/01/04 04:53:48;;;;;;;10.43;4.67;;;8.00;67.30;;;;;;5019730;28;20553;-58
2023/01/04 04:56:14;;;;;;;4.33;3.93;;;7.90;67.40;;;;;;5020951;28;20193;-58
2023/01/04 04:58:40;;;;;;;5.10;4.60;;;7.80;68.00;;;;;;5018264;28;20189;-58
2023/01/04 05:01:05;;;;;;;4.97;4.37;;;7.70;68.80;;;;;;5013927;28;20440;-58
2023/01/04 05:03:31;;;;;;;5.30;4.17;;;7.90;68.70;;;;;;5014636;28;21575;-59
2023/01/04 05:05:57;;;;;;;4.03;3.50;;;8.00;68.40;;;;;;5015363;28;20229;-58
2023/01/04 05:08:23;;;;;;;4.87;3.20;;;8.00;68.00;;;;;;5024026;28;20204;-58
2023/01/04 05:10:48;;;;;;;4.20;3.50;;;8.00;69.00;;;;;;5031393;28;20564;-58
2023/01/04 05:13:14;;;;;;;3.37;2.80;;;8.10;69.30;;;;;;5014370;28;20201;-58
2023/01/04 05:15:42;;;;;;;3.13;2.73;;;8.10;69.20;;;;;;5025577;28;20200;-58
2023/01/04 05:18:10;;;;;;;3.33;2.83;;;8.10;69.00;;;;;;5019532;28;20189;-58
2023/01/04 05:20:36;;;;;;;3.53;3.23;;;8.30;68.20;;;;;;5010911;28;20428;-58
2023/01/04 05:23:01;;;;;;;3.17;2.90;;;8.30;67.60;;;;;;5018029;28;20566;-59
2023/01/04 05:25:27;;;;;;;6.60;3.43;;;8.60;66.90;;;;;;5020529;28;20202;-59
2023/01/04 05:27:53;;;;;;;3.77;3.47;;;8.70;66.10;;;;;;5014731;28;20206;-59
2023/01/04 05:33:04;;;;;;;5.90;3.40;;;8.80;66.00;;;;;;5013283;28;20232;-58
2023/01/04 05:35:30;;;;;;;5.20;4.13;;;9.00;64.80;;;;;;5023871;28;20487;-59
2023/01/04 05:37:56;;;;;;;3.77;3.47;;;9.10;64.00;;;;;;5017605;28;20445;-59
2023/01/04 05:40:22;;;;;;;5.37;3.13;;;9.30;63.30;;;;;;5028823;28;20999;-59
2023/01/04 05:42:48;;;;;;;3.30;2.93;;;9.40;63.30;;;;;;5029919;28;20197;-59
2023/01/04 05:45:14;;;;;;;4.00;3.17;;;9.40;63.30;;;;;;5024994;28;21265;-58
2023/01/04 05:47:40;;;;;;;5.07;4.10;;;9.40;63.80;;;;;;5024460;28;20485;-58
2023/01/04 05:50:06;;;;;;;4.57;3.70;;;9.30;63.80;;;;;;5019521;28;20440;-59
2023/01/04 05:52:32;;;;;;;4.40;3.77;;;9.30;63.90;;;;;;5026732;28;20252;-59
2023/01/04 05:54:58;;;;;;;4.63;4.13;;;9.50;63.50;;;;;;5024936;28;20448;-58
2023/01/04 05:57:23;;;;;;;4.27;3.87;;;9.70;62.60;;;;;;5024297;28;20447;-59
2023/01/04 05:59:49;;;;;;;3.13;2.83;;;9.70;61.70;;;;;;5031423;28;20730;-59
2023/01/04 06:02:20;;;;;;;3.30;3.00;;;9.60;62.60;;;;;;5022735;28;20250;-59
2023/01/04 06:04:46;;;;;;;3.30;2.70;;;9.70;62.30;;;;;;5018346;28;20668;-59
2023/01/04 06:07:12;;;;;;;4.20;3.80;;;9.50;63.10;;;;;;5018612;28;20487;-59
2023/01/04 06:09:38;;;;;;;5.77;5.00;;;9.30;62.90;;;;;;5017397;28;20589;-59
2023/01/04 06:12:04;;;;;;;4.93;4.43;;;9.40;62.50;;;;;;5024683;28;20444;-59
2023/01/04 06:14:30;;;;;;;6.57;4.93;;;9.70;61.90;;;;;;5021544;28;20198;-59
2023/01/04 06:16:56;;;;;;;3.87;3.37;;;9.70;61.30;;;;;;5018041;28;20458;-59
2023/01/04 06:19:21;;;;;;;5.10;3.80;;;9.80;61.10;;;;;;5013828;28;20566;-59
2023/01/04 06:21:47;;;;;;;4.00;3.70;;;9.90;60.70;;;;;;5012344;28;20188;-60
2023/01/04 06:24:12;;;;;;;4.60;2.73;;;10.00;61.40;;;;;;5027619;28;20225;-59
2023/01/04 06:26:38;;;;;;;4.73;2.60;;;10.10;63.70;;;;;;5021961;28;20224;-60
2023/01/04 06:29:04;;;;;;;3.67;3.20;;;10.40;63.10;;;;;;5026888;28;20197;-59
2023/01/04 06:31:29;;;;;;;4.40;3.50;;;10.60;62.30;;;;;;5016822;28;20260;-59
2023/01/04 06:33:55;;;;;;;3.40;3.10;;;10.70;60.50;;;;;;5023403;28;20189;-60
2023/01/04 06:36:21;;;;;;;3.93;3.30;;;10.70;59.60;;;;;;5025368;28;20250;-60
2023/01/04 06:38:48;;;;;;;4.43;2.60;;;10.90;58.50;;;;;;5020669;28;20462;-60
2023/01/04 06:41:14;;;;;;;5.63;2.53;;;11.00;58.40;;;;;;5019633;28;20446;-59
2023/01/04 06:43:39;;;;;;;3.43;3.17;;;11.10;57.90;;;;;;5019087;28;20911;-60
2023/01/04 06:46:05;;;;;;;3.43;3.13;;;11.10;57.40;;;;;;5024127;28;20488;-60
2023/01/04 06:48:31;;;;;;;5.27;4.00;;;11.10;57.30;;;;;;5031183;28;20197;-59
2023/01/04 06:50:56;;;;;;;5.63;4.00;;;10.90;57.10;;;;;;5022135;28;20272;-60
2023/01/04 06:53:22;;;;;;;5.20;4.67;;;11.10;57.00;;;;;;5032372;28;20268;-60
2023/01/04 06:55:47;;;;;;;4.57;4.17;;;11.30;57.10;;;;;;5026463;28;20206;-60
2023/01/04 06:58:13;;;;;;;3.93;3.53;;;11.40;56.20;;;;;;5027839;28;20549;-60
2023/01/04 07:00:39;;;;;;;3.83;3.13;;;11.50;56.00;;;;;;5023978;28;20185;-60
2023/01/04 07:03:04;;;;;;;4.03;3.17;;;11.60;56.00;;;;;;5026023;28;20276;-60
2023/01/04 07:05:30;;;;;;;5.20;4.40;;;11.70;56.00;;;;;;5024744;28;20555;-60
2023/01/04 07:07:59;;;;;;;4.40;4.00;;;11.50;55.60;;;;;;5024031;28;20229;-61
2023/01/04 07:10:24;;;;;;;4.80;4.30;;;11.50;55.70;;;;;;5027538;28;20193;-60
2023/01/04 07:12:50;;;;;;;5.93;5.33;;;11.20;55.90;;;;;;5033476;28;20459;-60
2023/01/04 07:15:15;;;;;;;6.70;5.40;;;11.30;56.20;;;;;;5024608;28;20193;-60
2023/01/04 07:17:41;;;;;;;5.23;4.37;;;11.50;56.40;;;;;;5026459;28;20284;-60
2023/01/04 07:20:07;;;;;;;5.30;4.70;;;11.70;55.70;;;;;;5018636;28;20184;-59
2023/01/04 07:22:33;;;;;;;5.20;3.73;;;11.80;55.50;;;;;;5025135;28;20291;-60
2023/01/04 07:24:58;;;;;;;3.60;3.30;;;11.80;55.50;;;;;;5033184;28;20472;-59
2023/01/04 07:27:24;;;;;;;5.23;3.93;;;11.90;55.50;;;;;;5019213;28;20236;-60
2023/01/04 07:29:49;;;;;;;6.70;5.47;;;11.70;56.30;;;;;;5021178;28;20194;-61
2023/01/04 07:32:15;;;;;;;4.13;3.23;;;11.80;56.50;;;;;;5023484;28;20190;-60
2023/01/04 07:34:42;;;;;;;4.03;3.50;;;11.90;55.90;;;;;;5026059;28;20642;-60
2023/01/04 07:37:11;;;;;;;2.90;2.70;;;11.80;55.80;;;;;;5015809;28;20703;-60
2023/01/04 07:39:37;;;;;;;4.13;3.10;;;11.70;56.20;;;;;;5026394;28;20460;-60
2023/01/04 07:42:03;;;;;;;2.77;2.50;;;11.60;56.80;;;;;;5024988;28;21239;-60
2023/01/04 07:44:29;;;;;;;2.97;2.40;;;11.70;56.40;;;;;;5018532;28;20991;-60
2023/01/04 07:46:55;;;;;;;3.00;2.50;;;11.90;56.50;;;;;;5021864;28;20730;-61
2023/01/04 07:49:21;;;;;;;2.27;1.73;;;12.00;56.50;;;;;;5036840;28;20185;-61
2023/01/04 07:51:48;;;;;;;2.20;1.70;;;11.80;56.10;;;;;;5053542;28;20435;-61
2023/01/04 07:54:15;;;;;;;4.03;3.57;;;11.80;57.40;;;;;;5033440;28;20432;-61
2023/01/04 07:56:41;;;;;;;3.30;3.00;;;11.90;57.20;;;;;;5032915;28;20446;-61
2023/01/04 07:59:09;;;;;;;3.27;2.87;;;12.10;57.20;;;;;;5030086;28;20459;-61
2023/01/04 08:01:37;;;;;;;3.20;2.90;;;12.20;57.20;;;;;;5032943;28;20815;-60
2023/01/04 08:04:07;;;;;;;6.93;4.90;;;12.10;57.30;;;;;;5033308;28;20416;-60
2023/01/04 08:06:33;;;;;;;6.30;3.70;;;12.10;57.40;;;;;;5033105;28;20510;-60
2023/01/04 08:08:59;;;;;;;7.67;5.70;;;12.30;57.50;;;;;;5032509;28;20424;-60
2023/01/04 08:11:25;;;;;;;5.93;3.97;;;12.30;57.70;;;;;;5032955;28;20428;-60
2023/01/04 08:13:51;;;;;;;4.40;3.50;;;12.30;57.60;;;;;;5030737;28;20466;-60
2023/01/04 08:16:21;;;;;;;6.80;4.23;;;12.40;57.60;;;;;;5032757;28;20567;-60
2023/01/04 08:18:51;;;;;;;2.93;2.63;;;12.50;57.60;;;;;;5032777;28;20430;-60
2023/01/04 08:21:17;;;;;;;7.33;4.33;;;12.30;57.80;;;;;;5032059;28;20807;-60
2023/01/04 08:23:43;;;;;;;4.10;2.77;;;12.30;57.70;;;;;;5033295;28;20460;-60
2023/01/04 08:26:11;;;;;;;7.73;4.93;;;12.00;58.40;;;;;;5032396;28;20630;-60
2023/01/04 08:28:37;;;;;;;4.63;3.37;;;12.00;58.70;;;;;;5032785;28;20285;-60
2023/01/04 08:31:06;;;;;;;2.33;2.13;;;11.90;58.90;;;;;;5031336;28;20534;-61
2023/01/04 08:33:32;;;;;;;3.33;2.80;;;11.60;59.60;;;;;;5032871;28;20510;-61
2023/01/04 08:36:06;;;;;;;3.57;3.10;;;11.50;59.90;;;;;;5032563;28;20921;-60
2023/01/04 08:38:32;;;;;;;2.57;2.13;;;11.60;60.10;;;;;;5025164;28;20193;-61
2023/01/04 08:40:58;;;;;;;3.00;2.70;;;11.50;60.00;;;;;;5014820;28;20511;-59
2023/01/04 08:43:23;;;;;;;4.53;2.83;;;11.30;60.40;;;;;;5027939;28;20197;-59
2023/01/04 08:45:49;;;;;;;2.50;2.00;;;11.30;60.70;;;;;;5029409;28;20209;-59
2023/01/04 08:48:14;;;;;;;2.23;1.70;;;11.40;60.40;;;;;;5029295;28;20331;-59
2023/01/04 08:50:40;;;;;;;2.30;1.80;;;11.70;60.10;;;;;;5022678;28;20190;-59
2023/01/04 08:53:06;;;;;;;3.03;2.37;;;11.60;59.90;;;;;;5031061;28;20707;-60
2023/01/04 08:55:32;;;;;;;2.73;1.93;;;11.70;60.10;;;;;;5021005;28;20198;-60
2023/01/04 08:57:59;;;;;;;1.67;1.57;;;11.70;59.90;;;;;;5030942;28;21074;-60
2023/01/04 09:00:25;;;;;;;1.57;1.43;;;11.80;59.30;;;;;;5029051;28;20196;-60
2023/01/04 09:02:51;;;;;;;2.53;1.70;;;11.90;59.60;;;;;;5024117;28;20452;-60
2023/01/04 09:05:17;;;;;;;2.20;2.00;;;12.20;59.20;;;;;;5019487;28;20231;-60
2023/01/04 09:07:43;;;;;;;2.00;1.80;;;12.30;59.30;;;;;;5013805;28;20222;-61
2023/01/04 09:10:09;;;;;;;1.67;1.57;;;12.30;58.90;;;;;;5019616;28;20446;-61
2023/01/04 09:12:35;;;;;;;2.90;2.27;;;12.30;59.00;;;;;;5017936;28;20223;-60
2023/01/04 09:15:00;;;;;;;2.67;2.13;;;12.50;59.50;;;;;;5022197;28;20440;-61
2023/01/04 09:17:26;;;;;;;2.23;1.80;;;12.70;58.60;;;;;;5027632;28;20323;-61
2023/01/04 09:19:51;;;;;;;3.03;2.20;;;12.80;58.10;;;;;;5024086;28;20201;-61
2023/01/04 09:22:17;;;;;;;1.70;1.60;;;12.90;57.60;;;;;;5028376;28;20229;-61
2023/01/04 09:24:43;;;;;;;2.17;1.60;;;12.80;57.00;;;;;;5014493;28;20201;-60
2023/01/04 09:27:08;;;;;;;2.37;2.17;;;12.90;57.10;;;;;;5022804;28;20221;-62
2023/01/04 09:29:34;;;;;;;2.40;2.20;;;12.90;57.20;;;;;;5025828;28;21038;-62
2023/01/04 09:31:59;;;;;;;3.17;1.53;;;12.70;56.40;;;;;;5022988;28;20193;-62
2023/01/04 09:34:25;;;;;;;1.60;1.50;;;12.50;56.30;;;;;;5030956;28;20596;-62
2023/01/04 09:36:51;;;;;;;3.63;1.83;;;12.60;56.30;;;;;;5022900;28;20660;-62
2023/01/04 09:39:17;;;;;;;1.73;1.60;;;12.70;56.50;;;;;;5020040;28;20205;-62
2023/01/04 09:42:00;;;;;;;2.27;1.80;;;12.90;56.60;;;;;;5031507;28;20193;-62
2023/01/04 09:44:44;;;;;;;1.87;1.33;;;13.10;56.40;;;;;;5027108;28;20444;-62
2023/01/04 09:47:19;;;;;;;2.20;1.27;;;13.10;55.70;;;;;;5025937;28;20574;-63
2023/01/04 09:49:49;;;;;;;1.67;1.43;;;13.10;55.70;;;;;;5022570;28;20439;-63
2023/01/04 09:52:26;;;;;;;1.83;1.37;;;13.00;55.10;;;;;;5030798;28;20428;-62
2023/01/04 09:55:07;;;;;;;1.87;1.20;;;13.10;55.00;;;;;;5029945;28;20447;-62
2023/01/04 09:57:39;;;;;;;1.07;0.97;;;13.20;55.30;;;;;;5028721;28;20451;-63
2023/01/04 10:00:10;;;;;;;2.27;1.60;;;13.20;55.10;;;;;;5025132;28;20453;-62
2023/01/04 10:02:40;;;;;;;2.60;1.90;;;13.20;55.20;;;;;;5016338;28;20519;-63
2023/01/04 10:05:07;;;;;;;3.73;1.70;;;13.10;55.20;;;;;;5024879;28;20850;-62
2023/01/04 10:07:33;;;;;;;3.30;1.57;;;13.00;55.10;;;;;;5027008;28;20997;-63
2023/01/04 10:09:59;;;;;;;1.73;1.40;;;13.10;55.30;;;;;;5029237;28;20851;-62
2023/01/04 10:12:43;;;;;;;1.50;1.40;;;13.20;55.50;;;;;;5018598;28;20884;-62
2023/01/04 10:15:34;;;;;;;1.57;1.20;;;13.10;55.70;;;;;;5027357;28;20483;-62
2023/01/04 10:18:17;;;;;;;1.70;1.37;;;13.00;55.10;;;;;;5030902;28;20486;-62
2023/01/04 10:21:15;;;;;;;1.63;1.53;;;12.90;55.20;;;;;;5016909;28;20789;-63
2023/01/04 10:24:06;;;;;;;1.63;1.50;;;12.70;55.70;;;;;;5027230;28;20502;-62
2023/01/04 10:26:46;;;;;;;3.40;1.77;;;12.80;55.70;;;;;;5025276;28;20503;-62
2023/01/04 10:29:37;;;;;;;3.27;1.40;;;12.90;55.90;;;;;;5032128;28;20461;-62
2023/01/04 10:32:23;;;;;;;1.07;1.00;;;13.00;56.10;;;;;;5023028;28;20451;-64
2023/01/04 10:34:50;;;;;;;1.77;1.30;;;13.00;55.70;;;;;;5029203;28;20448;-62
2023/01/04 10:37:19;;;;;;;1.80;1.63;;;13.10;55.60;;;;;;5029590;28;20463;-62
2023/01/04 10:39:50;;;;;;;1.77;1.30;;;13.10;55.00;;;;;;5023523;28;20460;-62
2023/01/04 10:42:20;;;;;;;1.30;1.20;;;13.20;55.20;;;;;;5036493;28;20968;-62
2023/01/04 10:45:10;;;;;;;1.90;1.60;;;13.30;55.30;;;;;;5044728;28;20431;-62
2023/01/04 10:47:55;;;;;;;1.70;1.60;;;13.20;55.00;;;;;;5027099;28;20487;-62
2023/01/04 10:50:46;;;;;;;3.00;1.40;;;13.00;55.00;;;;;;5016851;28;20547;-62
2023/01/04 10:53:22;;;;;;;1.40;1.10;;;12.90;55.40;;;;;;5014866;28;20534;-62
2023/01/04 10:55:59;;;;;;;2.13;1.67;;;13.10;55.40;;;;;;5020286;28;20530;-62
2023/01/04 10:59:03;;;;;;;1.23;1.13;;;13.20;55.40;;;;;;5026243;28;20861;-62
2023/01/04 11:01:35;;;;;;;1.30;1.20;;;13.20;55.40;;;;;;4982796;28;20451;-62
2023/01/04 11:04:17;;;;;;;1.90;1.43;;;13.30;55.20;;;;;;5023748;28;20940;-62
2023/01/04 11:06:46;;;;;;;3.00;2.37;;;13.30;55.10;;;;;;5021672;28;20545;-62
2023/01/04 11:09:17;;;;;;;2.20;1.60;;;13.30;55.40;;;;;;5021957;28;20987;-62
2023/01/04 11:11:45;;;;;;;2.73;1.33;;;13.30;55.30;;;;;;5034275;28;20420;-62
2023/01/04 11:14:12;;;;;;;1.37;1.20;;;13.30;55.60;;;;;;5020427;28;20450;-62
2023/01/04 11:16:40;;;;;;;2.60;1.30;;;13.30;55.20;;;;;;5027439;28;20522;-62
2023/01/04 11:19:08;;;;;;;1.20;1.10;;;13.30;55.40;;;;;;5027547;28;20533;-62
2023/01/04 11:21:43;;;;;;;4.20;1.20;;;13.30;55.30;;;;;;5017383;28;21084;-62
2023/01/04 11:24:11;;;;;;;1.93;1.57;;;13.40;55.40;;;;;;5026342;28;20471;-62
2023/01/04 11:26:42;;;;;;;2.40;1.43;;;13.40;55.50;;;;;;5026718;28;20640;-61
2023/01/04 11:29:26;;;;;;;2.20;1.33;;;13.40;55.30;;;;;;5022481;28;20447;-61
2023/01/04 11:32:31;;;;;;;1.77;1.17;;;13.40;55.70;;;;;;5019096;28;20474;-61
2023/01/04 11:34:57;;;;;;;3.33;1.60;;;13.30;56.00;;;;;;5029206;28;20483;-60
2023/01/04 11:37:36;;;;;;;1.80;1.30;;;13.30;55.90;;;;;;5017270;28;20975;-60
2023/01/04 11:40:17;;;;;;;1.30;1.20;;;13.20;55.70;;;;;;5022070;28;20201;-60
2023/01/04 11:42:51;;;;;;;1.67;1.07;;;13.30;55.90;;;;;;5035718;28;20451;-59
2023/01/04 11:45:25;;;;;;;1.33;0.80;;;13.30;55.50;;;;;;5028995;28;20451;-59
2023/01/04 11:47:56;;;;;;;1.03;0.90;;;13.20;55.60;;;;;;5026498;28;20578;-60
2023/01/04 11:50:34;;;;;;;3.57;1.10;;;13.30;55.80;;;;;;5025944;28;20483;-59
2023/01/04 11:53:00;;;;;;;2.27;1.10;;;13.20;55.80;;;;;;5022982;28;20471;-59
2023/01/04 11:55:28;;;;;;;1.77;1.17;;;13.20;56.00;;;;;;5015821;28;20558;-59
2023/01/04 11:58:20;;;;;;;1.23;1.13;;;13.40;56.10;;;;;;5022293;28;20194;-59
2023/01/04 12:00:56;;;;;;;1.10;1.00;;;13.20;56.00;;;;;;5026166;28;20928;-60
2023/01/04 12:03:30;;;;;;;2.87;1.13;;;13.30;56.30;;;;;;5023985;28;20459;-59
2023/01/04 12:05:57;;;;;;;2.30;1.13;;;13.20;56.70;;;;;;5019514;28;20461;-59
2023/01/04 12:08:28;;;;;;;1.33;1.00;;;13.10;56.20;;;;;;5014755;28;20532;-59
2023/01/04 12:10:55;;;;;;;1.53;0.80;;;13.20;56.70;;;;;;5029338;28;20955;-59
2023/01/04 12:13:20;;;;;;;3.43;1.20;;;13.10;56.40;;;;;;5020622;28;20436;-59
2023/01/04 12:16:00;;;;;;;1.47;0.90;;;12.90;56.60;;;;;;5024124;28;20524;-59
2023/01/04 12:18:29;;;;;;;1.10;0.80;;;13.00;57.10;;;;;;5025912;28;20205;-59
2023/01/04 12:20:56;;;;;;;1.20;1.03;;;13.20;56.90;;;;;;5021122;28;20451;-59
2023/01/04 12:23:22;;;;;;;1.03;0.80;;;13.00;57.00;;;;;;5024744;28;21878;-59
2023/01/04 12:25:50;;;;;;;1.23;1.00;;;12.90;57.20;;;;;;5027533;28;20448;-59
2023/01/04 12:28:41;;;;;;;1.10;1.00;;;12.80;57.70;;;;;;5031158;28;20874;-59
2023/01/04 12:31:19;;;;;;;1.67;1.20;;;13.00;57.90;;;;;;5025061;28;20527;-58
2023/01/04 12:33:55;;;;;;;1.67;0.90;;;13.00;57.60;;;;;;5029540;28;20821;-58
2023/01/04 12:36:36;;;;;;;0.90;0.90;;;12.70;58.10;;;;;;5023935;28;20463;-58
2023/01/04 12:39:21;;;;;;;0.87;0.83;;;12.70;58.50;;;;;;5028193;28;20840;-58
2023/01/04 12:41:59;;;;;;;1.60;1.10;;;12.70;58.60;;;;;;5017733;28;20443;-58
2023/01/04 12:44:42;;;;;;;1.37;1.00;;;12.60;59.00;;;;;;5026458;28;20480;-58
2023/01/04 12:50:02;;;;;;;1.33;0.90;;;12.50;59.50;;;;;;5018255;28;20450;-59
2023/01/04 12:52:28;;;;;;;3.10;1.00;;;12.80;59.60;;;;;;5016457;28;20525;-58
2023/01/04 12:54:56;;;;;;;0.83;0.83;;;12.70;59.50;;;;;;5025379;28;20451;-58
2023/01/04 12:57:35;;;;;;;1.47;1.00;;;12.80;59.50;;;;;;5026086;28;20260;-58
2023/01/04 13:00:05;;;;;;;0.70;0.70;;;12.70;59.90;;;;;;5019629;28;20459;-58
2023/01/04 13:02:33;;;;;;;1.17;0.80;;;12.80;59.60;;;;;;5020550;28;20452;-58
2023/01/04 13:05:00;;;;;;;1.07;0.70;;;12.80;59.50;;;;;;5028230;28;20498;-58
2023/01/04 13:07:49;;;;;;;1.60;1.10;;;12.90;59.70;;;;;;5023286;28;20494;-58
2023/01/04 13:10:48;;;;;;;1.10;0.90;;;12.60;59.50;;;;;;5022328;28;20458;-59
2023/01/04 13:13:31;;;;;;;1.00;0.90;;;12.90;59.80;;;;;;5025149;28;20893;-59
2023/01/04 13:16:06;;;;;;;0.73;0.73;;;12.80;59.80;;;;;;5024433;28;20547;-60
2023/01/04 13:18:49;;;;;;;1.93;1.07;;;12.90;59.90;;;;;;5024380;28;20483;-59
2023/01/04 13:21:16;;;;;;;1.33;1.07;;;12.80;59.70;;;;;;5027550;28;20459;-59
2023/01/04 13:24:23;;;;;;;1.57;1.10;;;12.80;59.70;;;;;;5039685;28;21003;-60
2023/01/04 13:26:50;;;;;;;0.93;0.90;;;12.90;59.90;;;;;;5034381;28;21041;-60
2023/01/04 13:29:16;;;;;;;1.87;0.90;;;13.00;60.00;;;;;;5032897;28;20439;-60
2023/01/04 13:31:46;;;;;;;1.07;0.97;;;13.00;59.90;;;;;;5029937;28;20486;-60
2023/01/04 13:34:20;;;;;;;8.17;1.33;;;13.10;59.50;;;;;;5031652;28;20271;-60
2023/01/04 13:37:09;;;;;;;1.10;1.00;;;13.00;59.50;;;;;;5025461;28;20787;-60
2023/01/04 13:39:45;;;;;;;1.50;1.10;;;13.10;59.30;;;;;;5022571;28;20993;-59
2023/01/04 13:42:17;;;;;;;1.00;0.90;;;13.20;59.40;;;;;;5019801;28;20448;-61
2023/01/04 13:45:09;;;;;;;0.90;0.70;;;13.30;59.40;;;;;;5025653;28;20439;-58
2023/01/04 13:47:38;;;;;;;2.50;1.47;;;13.40;59.00;;;;;;5014715;28;20608;-60
2023/01/04 13:50:05;;;;;;;3.93;1.23;;;13.40;59.00;;;;;;5035283;28;20531;-58
2023/01/04 13:52:30;;;;;;;1.87;0.77;;;13.30;58.90;;;;;;5025119;28;20440;-59